createdAt,value
2023-04-09T00:08:07.510Z,98856.25
2023-04-09T00:38:10.728Z,98846.81
2023-04-09T01:08:21.287Z,98833.03
2023-04-09T01:38:25.273Z,98833.47
2023-04-09T02:08:30.677Z,98844.69
2023-04-09T02:38:33.704Z,98828.09
2023-04-09T03:08:36.719Z,98819.47
2023-04-09T03:38:39.763Z,98800.47
2023-04-09T04:08:42.818Z,98798.44
2023-04-09T04:38:45.865Z,98807.22
2023-04-09T05:08:48.909Z,98810.78
2023-04-09T05:38:52.302Z,98823.53
2023-04-09T06:08:55.603Z,98832.16
2023-04-09T06:38:58.553Z,98830.63
2023-04-09T07:09:01.674Z,98840.25
2023-04-09T07:39:04.636Z,98863.72
2023-04-09T08:09:07.757Z,98869.00
2023-04-09T08:39:10.763Z,98868.88
2023-04-09T09:09:15.320Z,98863.31
2023-04-09T09:39:18.339Z,98856.13
2023-04-09T10:09:22.173Z,98839.63
2023-04-09T10:39:28.247Z,98808.34
2023-04-09T11:09:35.189Z,98814.75
2023-04-09T11:39:38.295Z,98813.25
2023-04-09T12:09:48.204Z,98792.47
2023-04-09T12:39:51.167Z,98777.53
2023-04-09T13:09:55.569Z,98775.53
2023-04-09T13:39:59.205Z,98759.97
2023-04-09T14:10:03.025Z,98742.34
2023-04-09T14:40:07.485Z,98729.94
2023-04-09T15:10:11.257Z,98727.41
2023-04-09T15:40:14.404Z,98713.78
2023-04-09T16:10:17.539Z,98696.41
2023-04-09T16:40:23.254Z,98689.00
2023-04-09T17:10:26.305Z,98683.59
2023-04-09T17:40:29.516Z,98688.06
2023-04-09T18:10:32.534Z,98671.00
2023-04-09T18:40:41.259Z,98687.81
2023-04-09T19:10:44.828Z,98695.31
2023-04-09T19:40:47.938Z,98708.22
2023-04-09T20:10:50.894Z,98705.16
2023-04-09T20:40:53.871Z,98677.66
2023-04-09T21:10:56.952Z,98672.78
2023-04-09T21:40:59.968Z,98664.66
2023-04-09T22:11:02.993Z,98658.78
2023-04-09T22:41:06.212Z,98648.84
2023-04-09T23:11:09.425Z,98652.16
2023-04-09T23:41:12.631Z,98660.81
